Time;durP1;ratioP1;P1;durP2;ratioP2;P2;SDS_P1;SDS_P2;PMS_P1;PMS_P2;Temp;Humidity;BMP_temperature;BMP_pressure;BME280_temperature;BME280_humidity;BME280_pressure;Samples;Min_cycle;Max_cycle;Signal;HPM_P1;HPM_P2
2021/07/23 00:00:41;;;;;;;11.45;8.98;;;;;;;;;;3585660;40;20041;-60
2021/07/23 00:03:06;;;;;;;12.32;9.45;;;;;;;;;;3586663;40;20129;-60
2021/07/23 00:05:32;;;;;;;11.30;9.77;;;;;;;;;;3586446;40;20047;-60
2021/07/23 00:07:58;;;;;;;14.25;10.85;;;;;;;;;;3586848;40;20035;-60
2021/07/23 00:10:23;;;;;;;12.95;9.93;;;;;;;;;;3586406;40;20033;-60
2021/07/23 00:12:49;;;;;;;12.55;9.05;;;;;;;;;;3586857;40;20033;-60
2021/07/23 00:15:14;;;;;;;13.93;9.38;;;;;;;;;;3586676;40;20279;-60
2021/07/23 00:17:39;;;;;;;10.95;9.57;;;;;;;;;;3585672;40;20106;-60
2021/07/23 00:20:06;;;;;;;12.25;8.75;;;;;;;;;;3586237;40;20036;-60
2021/07/23 00:22:31;;;;;;;10.77;9.68;;;;;;;;;;3585043;40;20081;-60
2021/07/23 00:24:57;;;;;;;12.80;9.35;;;;;;;;;;3585532;40;20598;-60
2021/07/23 00:27:22;;;;;;;13.60;9.07;;;;;;;;;;3586666;40;20402;-60
2021/07/23 00:29:48;;;;;;;17.88;10.32;;;;;;;;;;3586178;40;20041;-60
2021/07/23 00:32:13;;;;;;;14.25;9.75;;;;;;;;;;3584735;40;20037;-60
2021/07/23 00:34:38;;;;;;;10.35;9.02;;;;;;;;;;3585186;40;20057;-60
2021/07/23 00:37:04;;;;;;;12.77;9.13;;;;;;;;;;3586493;40;20037;-60
2021/07/23 00:39:29;;;;;;;11.02;9.15;;;;;;;;;;3586226;40;20036;-60
2021/07/23 00:41:55;;;;;;;14.05;9.75;;;;;;;;;;3586764;40;20029;-60
2021/07/23 00:44:20;;;;;;;13.15;10.10;;;;;;;;;;3586527;40;20038;-60
2021/07/23 00:46:45;;;;;;;11.18;8.98;;;;;;;;;;3585981;40;20403;-60
2021/07/23 00:49:11;;;;;;;12.40;9.52;;;;;;;;;;3586801;40;20040;-60
2021/07/23 00:51:37;;;;;;;13.35;9.48;;;;;;;;;;3586186;40;20056;-60
2021/07/23 00:54:04;;;;;;;13.35;9.15;;;;;;;;;;3586240;40;20777;-60
2021/07/23 00:56:31;;;;;;;12.10;9.38;;;;;;;;;;3586013;40;20063;-60
2021/07/23 00:58:58;;;;;;;11.55;8.38;;;;;;;;;;3585762;40;20380;-60
2021/07/23 01:01:24;;;;;;;8.80;7.90;;;;;;;;;;3586019;40;20044;-60
2021/07/23 01:03:50;;;;;;;12.43;8.45;;;;;;;;;;3584812;40;20069;-60
2021/07/23 01:06:15;;;;;;;13.52;8.43;;;;;;;;;;3585988;40;20311;-60
2021/07/23 01:08:42;;;;;;;10.25;8.18;;;;;;;;;;3585904;40;20025;-60
2021/07/23 01:11:07;;;;;;;14.15;9.38;;;;;;;;;;3586307;40;20076;-60
2021/07/23 01:13:33;;;;;;;11.68;9.05;;;;;;;;;;3584729;40;20033;-60
2021/07/23 01:15:59;;;;;;;15.63;8.73;;;;;;;;;;3585873;40;20036;-60
2021/07/23 01:18:24;;;;;;;11.90;8.75;;;;;;;;;;3584883;40;20356;-60
2021/07/23 01:20:52;;;;;;;13.55;8.07;;;;;;;;;;3585913;40;20036;-60
2021/07/23 01:23:31;;;;;;;9.50;8.27;;;;;;;;;;3586134;40;20073;-60
2021/07/23 01:25:58;;;;;;;11.38;9.15;;;;;;;;;;3585551;40;20129;-60
2021/07/23 01:28:25;;;;;;;13.43;9.13;;;;;;;;;;3585265;40;20072;-60
2021/07/23 01:30:51;;;;;;;12.05;9.75;;;;;;;;;;3585087;40;20036;-60
2021/07/23 01:33:16;;;;;;;11.68;8.75;;;;;;;;;;3585693;40;20138;-60
2021/07/23 01:35:41;;;;;;;14.65;9.40;;;;;;;;;;3586091;40;20072;-60
2021/07/23 01:38:07;;;;;;;17.27;9.25;;;;;;;;;;3585103;40;20033;-60
2021/07/23 01:40:33;;;;;;;12.75;8.75;;;;;;;;;;3585702;40;20047;-60
2021/07/23 01:42:58;;;;;;;10.57;8.77;;;;;;;;;;3585985;40;20032;-60
2021/07/23 01:45:24;;;;;;;12.23;8.70;;;;;;;;;;3585814;40;20032;-60
2021/07/23 01:47:49;;;;;;;12.57;8.95;;;;;;;;;;3584715;40;20033;-60
2021/07/23 01:50:14;;;;;;;11.77;8.38;;;;;;;;;;3585484;40;20040;-60
2021/07/23 01:52:40;;;;;;;11.18;9.00;;;;;;;;;;3585791;40;20406;-60
2021/07/23 01:55:05;;;;;;;12.02;9.43;;;;;;;;;;3585746;40;20033;-60
2021/07/23 01:57:34;;;;;;;10.63;8.88;;;;;;;;;;3585019;40;20437;-60
2021/07/23 01:59:59;;;;;;;10.77;8.55;;;;;;;;;;3585657;40;20382;-60
2021/07/23 02:02:25;;;;;;;12.48;8.55;;;;;;;;;;3585776;40;20032;-60
2021/07/23 02:04:50;;;;;;;10.98;8.50;;;;;;;;;;3584247;40;20037;-60
2021/07/23 02:07:16;;;;;;;15.20;8.48;;;;;;;;;;3585164;40;20098;-61
2021/07/23 02:09:41;;;;;;;12.23;9.02;;;;;;;;;;3585326;40;20036;-61
2021/07/23 02:12:07;;;;;;;14.43;8.85;;;;;;;;;;3585307;40;20056;-61
2021/07/23 02:14:32;;;;;;;10.40;8.60;;;;;;;;;;3581376;40;20459;-61
2021/07/23 02:16:57;;;;;;;13.32;8.85;;;;;;;;;;3583998;40;20029;-61
2021/07/23 02:19:23;;;;;;;12.63;8.75;;;;;;;;;;3585349;40;20041;-61
2021/07/23 02:21:48;;;;;;;10.73;8.50;;;;;;;;;;3585638;40;20340;-62
2021/07/23 02:24:13;;;;;;;11.02;8.93;;;;;;;;;;3585747;40;20103;-62
2021/07/23 02:26:39;;;;;;;11.77;9.10;;;;;;;;;;3585876;40;20029;-62
2021/07/23 02:29:04;;;;;;;8.65;7.68;;;;;;;;;;3584442;40;20460;-62
2021/07/23 02:31:30;;;;;;;11.18;8.68;;;;;;;;;;3584546;40;20039;-62
2021/07/23 02:33:55;;;;;;;12.13;9.27;;;;;;;;;;3584488;40;20036;-62
2021/07/23 02:36:20;;;;;;;10.57;8.52;;;;;;;;;;3584411;40;20035;-62
2021/07/23 02:38:46;;;;;;;10.40;8.68;;;;;;;;;;3585174;40;20037;-62
2021/07/23 02:41:11;;;;;;;14.20;9.57;;;;;;;;;;3585740;40;20482;-62
2021/07/23 02:43:37;;;;;;;11.35;9.93;;;;;;;;;;3585628;40;20045;-62
2021/07/23 02:46:02;;;;;;;11.38;8.88;;;;;;;;;;3585317;40;20033;-65
2021/07/23 02:48:27;;;;;;;14.10;8.60;;;;;;;;;;3584906;40;20088;-62
2021/07/23 02:50:54;;;;;;;15.73;9.00;;;;;;;;;;3585288;40;20169;-62
2021/07/23 02:53:19;;;;;;;14.70;8.82;;;;;;;;;;3584695;40;20125;-62
2021/07/23 02:55:45;;;;;;;12.82;9.45;;;;;;;;;;3585442;40;20080;-62
2021/07/23 02:58:11;;;;;;;11.98;9.25;;;;;;;;;;3585476;40;20048;-62
2021/07/23 03:00:36;;;;;;;10.65;8.50;;;;;;;;;;3585670;40;20048;-62
2021/07/23 03:03:05;;;;;;;12.63;9.07;;;;;;;;;;3584849;40;20037;-62
2021/07/23 03:05:30;;;;;;;9.90;8.40;;;;;;;;;;3583144;40;20126;-61
2021/07/23 03:07:56;;;;;;;15.18;8.15;;;;;;;;;;3584812;40;20062;-62
2021/07/23 03:10:21;;;;;;;10.98;8.80;;;;;;;;;;3585241;40;20045;-61
2021/07/23 03:12:47;;;;;;;10.77;8.93;;;;;;;;;;3583926;40;20037;-62
2021/07/23 03:15:12;;;;;;;10.30;8.85;;;;;;;;;;3584852;40;20331;-62
2021/07/23 03:17:38;;;;;;;12.88;9.07;;;;;;;;;;3585847;40;20041;-62
2021/07/23 03:20:04;;;;;;;11.85;8.63;;;;;;;;;;3585232;40;20045;-61
2021/07/23 03:22:30;;;;;;;10.50;8.73;;;;;;;;;;3584189;40;20024;-61
2021/07/23 03:24:56;;;;;;;11.50;8.82;;;;;;;;;;3585422;40;20031;-61
2021/07/23 03:27:22;;;;;;;12.30;9.13;;;;;;;;;;3586189;40;20362;-61
2021/07/23 03:29:47;;;;;;;11.07;9.05;;;;;;;;;;3587310;40;20040;-62
2021/07/23 03:32:13;;;;;;;10.43;9.02;;;;;;;;;;3585784;40;20268;-61
2021/07/23 03:34:38;;;;;;;11.38;9.85;;;;;;;;;;3585554;40;20092;-61
2021/07/23 03:37:04;;;;;;;10.60;9.27;;;;;;;;;;3589275;40;20032;-61
2021/07/23 03:39:29;;;;;;;12.48;10.35;;;;;;;;;;3586545;40;20109;-61
2021/07/23 03:41:54;;;;;;;13.20;10.43;;;;;;;;;;3586584;40;20041;-61
2021/07/23 03:44:20;;;;;;;14.23;10.30;;;;;;;;;;3586852;40;20045;-61
2021/07/23 03:46:45;;;;;;;12.95;9.48;;;;;;;;;;3586796;40;20281;-61
2021/07/23 03:49:11;;;;;;;11.77;10.02;;;;;;;;;;3586119;40;20059;-61
2021/07/23 03:51:36;;;;;;;14.23;11.18;;;;;;;;;;3586535;40;20088;-61
2021/07/23 03:54:01;;;;;;;13.02;10.65;;;;;;;;;;3586564;40;20033;-61
2021/07/23 03:56:27;;;;;;;12.65;9.90;;;;;;;;;;3586640;40;20031;-61
2021/07/23 03:58:52;;;;;;;13.25;10.68;;;;;;;;;;3586201;40;20040;-61
2021/07/23 04:01:18;;;;;;;14.07;10.55;;;;;;;;;;3585642;40;20028;-61
2021/07/23 04:03:43;;;;;;;11.68;10.48;;;;;;;;;;3585751;40;20074;-61
2021/07/23 04:06:09;;;;;;;13.15;10.35;;;;;;;;;;3586283;40;20036;-61
2021/07/23 04:08:34;;;;;;;13.45;10.60;;;;;;;;;;3586542;40;20044;-61
2021/07/23 04:11:00;;;;;;;13.57;10.85;;;;;;;;;;3586628;40;20056;-61
2021/07/23 04:13:25;;;;;;;14.55;10.63;;;;;;;;;;3585964;40;20253;-61
2021/07/23 04:15:51;;;;;;;13.85;10.88;;;;;;;;;;3585892;40;20047;-61
2021/07/23 04:18:16;;;;;;;12.80;10.77;;;;;;;;;;3586440;40;20044;-61
2021/07/23 04:20:42;;;;;;;12.90;10.95;;;;;;;;;;3586333;40;20040;-61
2021/07/23 04:23:07;;;;;;;12.48;10.52;;;;;;;;;;3586076;40;20058;-61
2021/07/23 04:25:33;;;;;;;12.32;9.88;;;;;;;;;;3586440;40;20033;-61
2021/07/23 04:27:58;;;;;;;15.20;11.13;;;;;;;;;;3586503;40;20037;-62
2021/07/23 04:30:24;;;;;;;12.23;10.40;;;;;;;;;;3585411;40;20118;-61
2021/07/23 04:32:50;;;;;;;16.77;10.25;;;;;;;;;;3586222;40;20032;-61
2021/07/23 04:35:15;;;;;;;12.30;10.13;;;;;;;;;;3586519;40;20036;-61
2021/07/23 04:37:41;;;;;;;15.38;10.45;;;;;;;;;;3585968;40;20048;-61
2021/07/23 04:40:07;;;;;;;13.57;11.43;;;;;;;;;;3585503;40;20407;-61
2021/07/23 04:42:32;;;;;;;12.20;10.88;;;;;;;;;;3585915;40;20028;-61
2021/07/23 04:44:58;;;;;;;12.32;10.90;;;;;;;;;;3584949;40;20114;-61
2021/07/23 04:47:24;;;;;;;18.05;11.30;;;;;;;;;;3586185;40;20356;-61
2021/07/23 04:49:49;;;;;;;14.38;10.80;;;;;;;;;;3586629;40;20052;-61
2021/07/23 04:52:15;;;;;;;11.57;10.43;;;;;;;;;;3586319;40;20044;-61
2021/07/23 04:54:41;;;;;;;14.07;10.73;;;;;;;;;;3585542;40;20129;-61
2021/07/23 04:57:06;;;;;;;13.80;11.80;;;;;;;;;;3585077;40;20052;-61
2021/07/23 04:59:32;;;;;;;15.82;10.88;;;;;;;;;;3585568;40;20052;-63
2021/07/23 05:01:57;;;;;;;13.82;11.35;;;;;;;;;;3582987;40;20040;-61
2021/07/23 05:04:23;;;;;;;15.35;11.05;;;;;;;;;;3585363;40;20028;-61
2021/07/23 05:06:49;;;;;;;15.38;11.70;;;;;;;;;;3584674;40;20033;-61
2021/07/23 05:09:14;;;;;;;13.35;11.73;;;;;;;;;;3585018;40;20094;-61
2021/07/23 05:11:41;;;;;;;12.85;11.52;;;;;;;;;;3585457;40;20040;-61
2021/07/23 05:14:07;;;;;;;14.25;11.25;;;;;;;;;;3584548;40;20352;-61
2021/07/23 05:16:34;;;;;;;15.00;11.23;;;;;;;;;;3584654;40;20041;-61
2021/07/23 05:19:00;;;;;;;19.40;11.35;;;;;;;;;;3583330;40;20089;-61
2021/07/23 05:21:25;;;;;;;21.83;11.15;;;;;;;;;;3585510;40;20345;-62
2021/07/23 05:23:51;;;;;;;14.32;10.57;;;;;;;;;;3583239;40;20713;-61
2021/07/23 05:26:16;;;;;;;10.55;9.43;;;;;;;;;;3585614;40;20040;-61
2021/07/23 05:28:42;;;;;;;12.25;9.85;;;;;;;;;;3581398;40;20129;-61
2021/07/23 05:31:07;;;;;;;10.88;9.50;;;;;;;;;;3585606;40;20044;-62
2021/07/23 05:33:32;;;;;;;15.70;9.32;;;;;;;;;;3584419;40;20126;-62
2021/07/23 05:35:58;;;;;;;10.55;8.77;;;;;;;;;;3586277;40;20283;-61
2021/07/23 05:38:23;;;;;;;11.50;8.88;;;;;;;;;;3586043;40;20040;-61
2021/07/23 05:40:49;;;;;;;11.52;9.20;;;;;;;;;;3585462;40;20376;-61
2021/07/23 05:43:14;;;;;;;11.68;8.75;;;;;;;;;;3584880;40;20044;-61
2021/07/23 05:45:40;;;;;;;12.32;9.45;;;;;;;;;;3582731;40;20036;-61
2021/07/23 05:48:06;;;;;;;9.75;8.38;;;;;;;;;;3585441;40;20041;-61
2021/07/23 05:50:32;;;;;;;11.35;8.90;;;;;;;;;;3584789;40;20094;-61
2021/07/23 05:52:58;;;;;;;14.88;10.10;;;;;;;;;;3585840;40;20475;-62
2021/07/23 05:55:23;;;;;;;11.80;8.93;;;;;;;;;;3586063;40;20033;-61
2021/07/23 05:57:49;;;;;;;11.55;8.85;;;;;;;;;;3584796;40;20450;-61
2021/07/23 06:00:15;;;;;;;10.63;8.95;;;;;;;;;;3583678;40;20036;-62
2021/07/23 06:02:41;;;;;;;10.80;9.63;;;;;;;;;;3583202;40;20039;-61
2021/07/23 06:05:07;;;;;;;11.75;9.27;;;;;;;;;;3580869;40;20052;-61
2021/07/23 06:07:32;;;;;;;14.57;9.30;;;;;;;;;;3583702;40;20360;-61
2021/07/23 06:09:57;;;;;;;11.05;8.73;;;;;;;;;;3584702;40;20040;-62
2021/07/23 06:12:23;;;;;;;12.00;9.32;;;;;;;;;;3582552;40;20037;-62
2021/07/23 06:14:49;;;;;;;11.55;9.35;;;;;;;;;;3584715;40;20450;-62
2021/07/23 06:17:14;;;;;;;14.52;9.63;;;;;;;;;;3585985;40;20032;-61
2021/07/23 06:19:41;;;;;;;11.27;9.50;;;;;;;;;;3584553;40;20568;-61
2021/07/23 06:22:07;;;;;;;11.20;9.10;;;;;;;;;;3585229;40;20040;-62
2021/07/23 06:24:33;;;;;;;10.55;9.15;;;;;;;;;;3586239;40;20059;-61
2021/07/23 06:26:58;;;;;;;12.90;9.50;;;;;;;;;;3585679;40;20037;-61
2021/07/23 06:29:24;;;;;;;11.25;9.38;;;;;;;;;;3585527;40;20057;-62
2021/07/23 06:31:49;;;;;;;11.65;8.82;;;;;;;;;;3583720;40;20141;-60
2021/07/23 06:34:15;;;;;;;16.88;8.90;;;;;;;;;;3584076;40;20036;-60
2021/07/23 06:36:40;;;;;;;11.38;9.10;;;;;;;;;;3583752;40;20084;-60
2021/07/23 06:39:06;;;;;;;10.75;8.35;;;;;;;;;;3585492;40;20044;-60
2021/07/23 06:41:31;;;;;;;13.18;8.73;;;;;;;;;;3585746;40;20048;-60
2021/07/23 06:43:58;;;;;;;12.02;8.05;;;;;;;;;;3584591;40;20045;-60
2021/07/23 06:46:23;;;;;;;16.40;8.60;;;;;;;;;;3584122;40;20044;-60
2021/07/23 06:48:48;;;;;;;11.68;7.78;;;;;;;;;;3584792;40;20036;-60
2021/07/23 06:51:14;;;;;;;19.75;8.05;;;;;;;;;;3585412;40;20089;-60
2021/07/23 06:53:39;;;;;;;10.45;8.63;;;;;;;;;;3587023;40;20051;-60
2021/07/23 06:56:05;;;;;;;11.43;8.10;;;;;;;;;;3587247;40;20052;-60
2021/07/23 06:58:31;;;;;;;11.13;8.70;;;;;;;;;;3585202;40;20045;-60
2021/07/23 07:01:03;;;;;;;14.23;8.63;;;;;;;;;;3586980;40;20056;-60
2021/07/23 07:03:28;;;;;;;12.45;9.40;;;;;;;;;;3586803;40;20054;-60
2021/07/23 07:05:54;;;;;;;12.68;9.18;;;;;;;;;;3586682;40;20032;-60
2021/07/23 07:08:19;;;;;;;14.57;8.70;;;;;;;;;;3586607;40;20454;-60
2021/07/23 07:10:44;;;;;;;15.68;9.02;;;;;;;;;;3586583;40;20045;-60
2021/07/23 07:13:10;;;;;;;14.45;9.30;;;;;;;;;;3586945;40;20147;-60
2021/07/23 07:15:35;;;;;;;9.50;8.45;;;;;;;;;;3586117;40;20025;-61
2021/07/23 07:18:02;;;;;;;11.38;8.52;;;;;;;;;;3587429;40;20377;-60
2021/07/23 07:20:28;;;;;;;12.30;8.73;;;;;;;;;;3585916;40;20052;-61
2021/07/23 07:22:54;;;;;;;12.57;8.48;;;;;;;;;;3586633;40;20284;-60
2021/07/23 07:25:24;;;;;;;10.38;8.95;;;;;;;;;;3584741;40;20033;-60
2021/07/23 07:27:49;;;;;;;12.85;9.30;;;;;;;;;;3586710;40;20042;-60
2021/07/23 07:30:15;;;;;;;14.88;9.55;;;;;;;;;;3586432;40;20461;-60
2021/07/23 07:32:40;;;;;;;11.13;8.93;;;;;;;;;;3586710;40;20040;-60
2021/07/23 07:35:07;;;;;;;16.20;9.50;;;;;;;;;;3586974;40;20089;-60
2021/07/23 07:37:32;;;;;;;10.85;9.18;;;;;;;;;;3585429;40;20133;-60
2021/07/23 07:39:58;;;;;;;11.65;9.25;;;;;;;;;;3593968;40;20056;-60
2021/07/23 07:42:24;;;;;;;12.52;9.90;;;;;;;;;;3586454;40;20032;-60
2021/07/23 07:44:49;;;;;;;12.90;9.15;;;;;;;;;;3586092;40;20051;-60
2021/07/23 07:47:15;;;;;;;11.25;8.20;;;;;;;;;;3585479;40;20060;-60
2021/07/23 07:49:41;;;;;;;11.02;8.93;;;;;;;;;;3584838;40;20354;-60
2021/07/23 07:52:07;;;;;;;11.90;10.07;;;;;;;;;;3584736;40;20060;-59
2021/07/23 07:54:32;;;;;;;11.52;10.35;;;;;;;;;;3585532;40;20068;-60
2021/07/23 07:57:06;;;;;;;11.40;9.18;;;;;;;;;;3586370;40;20051;-60
2021/07/23 07:59:31;;;;;;;11.20;9.45;;;;;;;;;;3585479;40;20049;-60
2021/07/23 08:01:57;;;;;;;14.48;9.35;;;;;;;;;;3586238;40;20138;-59
2021/07/23 08:04:22;;;;;;;10.50;8.40;;;;;;;;;;3583445;40;20123;-59
2021/07/23 08:06:48;;;;;;;11.30;10.10;;;;;;;;;;3584981;40;20044;-59
2021/07/23 08:09:15;;;;;;;12.05;9.00;;;;;;;;;;3584419;40;20045;-59
2021/07/23 08:11:40;;;;;;;10.68;9.13;;;;;;;;;;3585840;40;20114;-58
2021/07/23 08:14:06;;;;;;;10.73;9.27;;;;;;;;;;3586385;40;20700;-58
2021/07/23 08:16:32;;;;;;;13.57;8.20;;;;;;;;;;3586602;40;20039;-59
2021/07/23 08:19:04;;;;;;;14.15;8.98;;;;;;;;;;3586647;40;20292;-60
2021/07/23 08:21:31;;;;;;;14.50;8.57;;;;;;;;;;3583675;40;20025;-58
2021/07/23 08:24:01;;;;;;;11.05;8.85;;;;;;;;;;3584036;40;20108;-59
2021/07/23 08:26:27;;;;;;;11.05;8.38;;;;;;;;;;3584308;40;20033;-59
2021/07/23 08:28:52;;;;;;;12.23;8.18;;;;;;;;;;3582565;40;20029;-60
2021/07/23 08:31:18;;;;;;;12.55;8.20;;;;;;;;;;3584123;40;20029;-60
2021/07/23 08:33:44;;;;;;;10.00;8.15;;;;;;;;;;3586776;40;20028;-61
2021/07/23 08:36:09;;;;;;;10.82;7.93;;;;;;;;;;3586109;40;20356;-60
2021/07/23 08:38:35;;;;;;;11.00;7.85;;;;;;;;;;3585426;40;20044;-60
2021/07/23 08:41:02;;;;;;;8.98;8.07;;;;;;;;;;3584273;40;20029;-61
2021/07/23 08:43:27;;;;;;;8.95;7.97;;;;;;;;;;3584401;40;20028;-60
2021/07/23 08:45:53;;;;;;;8.98;7.63;;;;;;;;;;3585343;40;20048;-62
2021/07/23 08:48:18;;;;;;;9.27;7.25;;;;;;;;;;3584603;40;20414;-60
2021/07/23 08:50:44;;;;;;;7.68;6.72;;;;;;;;;;3584334;40;20044;-60
2021/07/23 08:53:09;;;;;;;10.77;8.00;;;;;;;;;;3585966;40;20046;-60
2021/07/23 08:55:35;;;;;;;11.38;8.15;;;;;;;;;;3584466;40;20450;-61
2021/07/23 08:58:01;;;;;;;11.20;7.20;;;;;;;;;;3584366;40;20033;-60
2021/07/23 09:00:27;;;;;;;9.30;7.70;;;;;;;;;;3583294;40;20037;-60
2021/07/23 09:03:06;;;;;;;9.23;7.20;;;;;;;;;;3585631;40;20406;-60
2021/07/23 09:05:45;;;;;;;9.57;7.88;;;;;;;;;;3584279;40;20280;-60
2021/07/23 09:08:15;;;;;;;8.00;6.45;;;;;;;;;;3583907;40;20329;-61
2021/07/23 09:10:43;;;;;;;12.13;6.78;;;;;;;;;;3586545;40;20041;-61
2021/07/23 09:13:09;;;;;;;12.23;7.30;;;;;;;;;;3584078;40;20053;-61
2021/07/23 09:15:43;;;;;;;8.27;7.43;;;;;;;;;;3584588;40;20042;-61
2021/07/23 09:18:31;;;;;;;15.55;6.70;;;;;;;;;;3585713;40;20036;-60
2021/07/23 09:20:59;;;;;;;7.82;6.82;;;;;;;;;;3585804;40;20368;-61
2021/07/23 09:23:36;;;;;;;10.90;7.82;;;;;;;;;;3584321;40;20138;-60
2021/07/23 09:26:16;;;;;;;10.50;7.10;;;;;;;;;;3583831;40;20052;-61
2021/07/23 09:28:44;;;;;;;9.02;7.40;;;;;;;;;;3583630;40;20047;-60
2021/07/23 09:31:19;;;;;;;9.63;7.35;;;;;;;;;;3584494;40;20268;-62
2021/07/23 09:33:45;;;;;;;8.98;6.90;;;;;;;;;;3584493;40;20380;-61
2021/07/23 09:36:12;;;;;;;19.17;8.05;;;;;;;;;;3584938;40;20082;-60
2021/07/23 09:38:37;;;;;;;8.43;7.22;;;;;;;;;;3584368;40;20041;-61
2021/07/23 09:41:05;;;;;;;8.38;6.78;;;;;;;;;;3585255;40;20408;-61
2021/07/23 09:43:32;;;;;;;7.63;6.88;;;;;;;;;;3585055;40;20044;-61
2021/07/23 09:46:33;;;;;;;8.65;7.07;;;;;;;;;;3585319;40;20228;-61
2021/07/23 09:49:01;;;;;;;9.98;7.72;;;;;;;;;;3581341;40;20064;-61
2021/07/23 09:51:27;;;;;;;9.82;7.68;;;;;;;;;;3583645;40;20365;-61
2021/07/23 09:53:54;;;;;;;9.63;8.48;;;;;;;;;;3585568;40;20049;-61
2021/07/23 09:56:22;;;;;;;13.60;9.55;;;;;;;;;;3585825;40;20056;-61
2021/07/23 09:58:54;;;;;;;9.70;8.57;;;;;;;;;;3584825;40;20094;-61
2021/07/23 10:01:25;;;;;;;8.93;8.07;;;;;;;;;;3584429;40;20449;-60
2021/07/23 10:03:53;;;;;;;12.23;7.65;;;;;;;;;;3585789;40;20040;-61
2021/07/23 10:06:27;;;;;;;9.60;8.32;;;;;;;;;;3585557;40;20056;-60
2021/07/23 10:09:01;;;;;;;13.77;8.60;;;;;;;;;;3585789;40;20129;-60
2021/07/23 10:11:27;;;;;;;11.57;8.45;;;;;;;;;;3583893;40;20051;-60
2021/07/23 10:13:54;;;;;;;16.33;9.00;;;;;;;;;;3584979;40;20291;-60
2021/07/23 10:16:20;;;;;;;9.48;8.48;;;;;;;;;;3585096;40;20052;-61
2021/07/23 10:18:46;;;;;;;11.07;8.57;;;;;;;;;;3585382;40;20399;-60
2021/07/23 10:21:11;;;;;;;22.95;9.98;;;;;;;;;;3584974;40;20056;-60
2021/07/23 10:23:39;;;;;;;10.35;9.30;;;;;;;;;;3584200;40;20049;-60
2021/07/23 10:26:05;;;;;;;10.10;9.00;;;;;;;;;;3584909;40;20056;-60
2021/07/23 10:28:36;;;;;;;12.73;9.45;;;;;;;;;;3584461;40;20095;-60
2021/07/23 10:31:35;;;;;;;10.20;8.77;;;;;;;;;;3585659;40;20041;-60
2021/07/23 10:34:02;;;;;;;10.47;8.50;;;;;;;;;;3584969;40;20076;-60
2021/07/23 10:36:31;;;;;;;9.90;8.38;;;;;;;;;;3584905;40;20060;-60
2021/07/23 10:39:08;;;;;;;10.43;8.70;;;;;;;;;;3585050;40;20040;-61
2021/07/23 10:41:39;;;;;;;12.50;8.10;;;;;;;;;;3584846;40;20068;-62
2021/07/23 10:44:10;;;;;;;10.98;8.80;;;;;;;;;;3584881;40;20558;-61
2021/07/23 10:46:47;;;;;;;10.65;8.32;;;;;;;;;;3584789;40;20352;-62
2021/07/23 10:49:24;;;;;;;17.73;9.25;;;;;;;;;;3584720;40;20791;-61
2021/07/23 10:51:52;;;;;;;11.82;9.18;;;;;;;;;;3584102;40;20052;-61
2021/07/23 10:54:19;;;;;;;10.40;9.10;;;;;;;;;;3585316;40;20464;-61
2021/07/23 10:59:40;;;;;;;9.80;8.80;;;;;;;;;;3585391;40;20076;-61
2021/07/23 11:02:13;;;;;;;10.02;8.15;;;;;;;;;;3585538;40;20364;-60
2021/07/23 11:04:39;;;;;;;9.63;8.02;;;;;;;;;;3584510;40;20043;-60
2021/07/23 11:07:05;;;;;;;16.95;7.88;;;;;;;;;;3585184;40;20029;-61
2021/07/23 11:09:34;;;;;;;10.75;8.55;;;;;;;;;;3585244;40;20292;-60
2021/07/23 11:12:20;;;;;;;8.73;7.93;;;;;;;;;;3584958;40;20041;-60
2021/07/23 11:14:57;;;;;;;10.52;9.00;;;;;;;;;;3585009;40;20805;-60
2021/07/23 11:17:23;;;;;;;11.15;8.82;;;;;;;;;;3584486;40;20083;-60
2021/07/23 11:19:55;;;;;;;12.07;9.13;;;;;;;;;;3585532;40;20122;-60
2021/07/23 11:22:23;;;;;;;9.13;8.25;;;;;;;;;;3584690;40;20342;-60
2021/07/23 11:24:49;;;;;;;11.02;8.93;;;;;;;;;;3585061;40;20039;-61
2021/07/23 11:27:31;;;;;;;10.40;9.35;;;;;;;;;;3585099;40;20040;-61
2021/07/23 11:29:58;;;;;;;13.77;9.18;;;;;;;;;;3583197;40;20041;-60
2021/07/23 11:32:28;;;;;;;10.88;9.38;;;;;;;;;;3584185;40;20032;-60
2021/07/23 11:35:04;;;;;;;9.60;8.38;;;;;;;;;;3585067;40;20056;-61
2021/07/23 11:37:30;;;;;;;10.68;8.35;;;;;;;;;;3585189;40;20068;-60
2021/07/23 11:40:00;;;;;;;10.63;9.52;;;;;;;;;;3586310;40;20129;-59
2021/07/23 11:42:28;;;;;;;10.32;9.23;;;;;;;;;;3586348;40;20125;-59
2021/07/23 11:45:01;;;;;;;10.25;8.77;;;;;;;;;;3586454;40;20068;-59
2021/07/23 11:47:33;;;;;;;10.75;9.65;;;;;;;;;;3586265;40;20675;-59
2021/07/23 11:50:10;;;;;;;11.45;9.52;;;;;;;;;;3586984;40;20051;-59
2021/07/23 11:52:37;;;;;;;11.10;9.07;;;;;;;;;;3586236;40;20048;-58
2021/07/23 11:55:13;;;;;;;11.07;9.15;;;;;;;;;;3586716;40;20051;-58
2021/07/23 11:57:43;;;;;;;10.82;9.65;;;;;;;;;;3587175;40;20375;-58
2021/07/23 12:00:27;;;;;;;;;;;;;;;;;;3586151;40;20048;-58
2021/07/23 12:02:54;;;;;;;13.50;9.93;;;;;;;;;;3585932;40;20246;-58
2021/07/23 12:05:21;;;;;;;16.65;9.45;;;;;;;;;;3585839;40;20041;-59
2021/07/23 12:07:58;;;;;;;10.05;8.70;;;;;;;;;;3586507;40;20482;-59
2021/07/23 12:10:24;;;;;;;9.73;8.73;;;;;;;;;;3586616;40;20032;-59
2021/07/23 12:12:50;;;;;;;11.65;9.45;;;;;;;;;;3585099;40;20317;-59
2021/07/23 12:15:17;;;;;;;11.60;8.77;;;;;;;;;;3586845;40;20037;-59
2021/07/23 12:17:44;;;;;;;11.02;9.05;;;;;;;;;;3586368;40;20042;-59
2021/07/23 12:20:11;;;;;;;10.73;9.68;;;;;;;;;;3586553;40;20029;-59
2021/07/23 12:22:37;;;;;;;10.05;8.88;;;;;;;;;;3584015;40;20096;-59
2021/07/23 12:25:20;;;;;;;13.85;9.55;;;;;;;;;;3586755;40;20041;-59
2021/07/23 12:27:45;;;;;;;10.73;9.57;;;;;;;;;;3586126;40;20028;-58
2021/07/23 12:30:12;;;;;;;11.27;9.02;;;;;;;;;;3585066;40;20340;-58
2021/07/23 12:32:37;;;;;;;10.07;8.73;;;;;;;;;;3585046;40;20040;-58
2021/07/23 12:35:03;;;;;;;10.18;9.10;;;;;;;;;;3585228;40;20017;-58
2021/07/23 12:37:29;;;;;;;10.43;9.25;;;;;;;;;;3585495;40;20614;-58
2021/07/23 12:40:01;;;;;;;13.00;9.48;;;;;;;;;;3584810;40;20047;-58
2021/07/23 12:42:28;;;;;;;11.30;9.77;;;;;;;;;;3583508;40;20363;-58
2021/07/23 12:44:54;;;;;;;12.60;9.20;;;;;;;;;;3586149;40;20049;-58
2021/07/23 12:47:22;;;;;;;11.00;9.15;;;;;;;;;;3583846;40;20080;-59
2021/07/23 12:49:49;;;;;;;10.73;9.13;;;;;;;;;;3583076;40;20395;-58
2021/07/23 12:52:15;;;;;;;9.90;8.77;;;;;;;;;;3582460;40;20062;-59
2021/07/23 12:54:45;;;;;;;10.90;9.27;;;;;;;;;;3584530;40;20040;-59
2021/07/23 12:57:12;;;;;;;10.68;9.57;;;;;;;;;;3585844;40;20141;-59
2021/07/23 12:59:37;;;;;;;11.25;8.45;;;;;;;;;;3585422;40;20077;-60
2021/07/23 13:02:03;;;;;;;10.55;9.27;;;;;;;;;;3586082;40;20036;-59
2021/07/23 13:04:28;;;;;;;10.50;9.40;;;;;;;;;;3586213;40;20065;-60
2021/07/23 13:06:53;;;;;;;10.50;9.40;;;;;;;;;;3585283;40;20028;-60
2021/07/23 13:09:19;;;;;;;12.50;9.20;;;;;;;;;;3585002;40;20033;-60
2021/07/23 13:11:44;;;;;;;11.25;9.27;;;;;;;;;;3585807;40;20429;-59
2021/07/23 13:14:10;;;;;;;12.15;9.15;;;;;;;;;;3586026;40;20133;-60
2021/07/23 13:16:35;;;;;;;14.93;8.93;;;;;;;;;;3583332;40;20031;-59
2021/07/23 13:19:01;;;;;;;9.48;8.48;;;;;;;;;;3584927;40;20044;-59
2021/07/23 13:21:26;;;;;;;10.40;9.10;;;;;;;;;;3584896;40;20376;-60
2021/07/23 13:23:52;;;;;;;9.45;8.43;;;;;;;;;;3583876;40;20056;-60
2021/07/23 13:26:18;;;;;;;11.27;9.25;;;;;;;;;;3585975;40;20080;-60
2021/07/23 13:28:43;;;;;;;10.77;8.68;;;;;;;;;;3585817;40;20043;-59
2021/07/23 13:31:08;;;;;;;10.82;9.65;;;;;;;;;;3585933;40;20459;-60
2021/07/23 13:33:35;;;;;;;10.65;9.60;;;;;;;;;;3585475;40;20091;-60
2021/07/23 13:36:08;;;;;;;9.30;7.97;;;;;;;;;;3585810;40;20044;-60
2021/07/23 13:38:37;;;;;;;11.35;9.55;;;;;;;;;;3584469;40;20840;-60
2021/07/23 13:41:06;;;;;;;11.73;9.20;;;;;;;;;;3585840;40;20450;-60
2021/07/23 13:43:32;;;;;;;13.00;9.50;;;;;;;;;;3586212;40;20094;-60
2021/07/23 13:45:57;;;;;;;12.45;9.43;;;;;;;;;;3585861;40;20531;-60
2021/07/23 13:48:23;;;;;;;13.55;9.75;;;;;;;;;;3586179;40;20055;-60
2021/07/23 13:50:48;;;;;;;10.88;9.70;;;;;;;;;;3585727;40;20044;-60
2021/07/23 13:53:14;;;;;;;11.05;9.80;;;;;;;;;;3586200;40;20371;-60
2021/07/23 13:55:39;;;;;;;10.27;9.27;;;;;;;;;;3585705;40;20048;-60
2021/07/23 13:58:05;;;;;;;11.82;9.25;;;;;;;;;;3586253;40;20033;-60
2021/07/23 14:00:31;;;;;;;10.90;9.10;;;;;;;;;;3584119;40;20021;-60
2021/07/23 14:02:57;;;;;;;9.80;8.55;;;;;;;;;;3585903;40;20040;-58
2021/07/23 14:05:22;;;;;;;11.02;8.98;;;;;;;;;;3584386;40;20033;-60
2021/07/23 14:07:49;;;;;;;11.85;8.60;;;;;;;;;;3584076;40;20029;-60
2021/07/23 14:10:15;;;;;;;9.50;8.50;;;;;;;;;;3585235;40;20033;-60
2021/07/23 14:12:40;;;;;;;13.27;8.82;;;;;;;;;;3585879;40;20125;-60
2021/07/23 14:15:07;;;;;;;9.93;9.02;;;;;;;;;;3585641;40;20692;-60
2021/07/23 14:17:32;;;;;;;9.77;8.70;;;;;;;;;;3585835;40;20048;-60
2021/07/23 14:19:58;;;;;;;12.68;9.38;;;;;;;;;;3585503;40;20032;-60
2021/07/23 14:22:23;;;;;;;13.52;9.40;;;;;;;;;;3585300;40;20396;-60
2021/07/23 14:24:49;;;;;;;11.38;10.15;;;;;;;;;;3585526;40;20029;-60
2021/07/23 14:27:14;;;;;;;10.00;8.65;;;;;;;;;;3585790;40;20269;-60
2021/07/23 14:29:40;;;;;;;10.65;9.23;;;;;;;;;;3582806;40;20072;-60
2021/07/23 14:32:08;;;;;;;12.45;8.57;;;;;;;;;;3584542;40;20056;-60